createdAt,value
2023-03-26T00:01:33.618Z,67.48
2023-03-26T00:04:06.873Z,67.25
2023-03-26T00:06:40.061Z,67.88
2023-03-26T00:09:10.533Z,67.81
2023-03-26T00:11:37.816Z,68.98
2023-03-26T00:14:05.843Z,68.27
2023-03-26T00:16:33.625Z,68.28
2023-03-26T00:19:02.256Z,68.52
2023-03-26T00:21:30.760Z,68.58
2023-03-26T00:24:04.868Z,68.01
2023-03-26T00:26:37.829Z,67.94
2023-03-26T00:29:07.023Z,67.65
2023-03-26T00:31:35.107Z,67.35
2023-03-26T00:34:10.966Z,66.84
2023-03-26T00:36:38.031Z,66.31
2023-03-26T00:39:05.989Z,66.05
2023-03-26T00:41:38.023Z,65.72
2023-03-26T00:44:05.272Z,66.43
2023-03-26T00:46:34.287Z,66.76
2023-03-26T00:49:04.196Z,66.21
2023-03-26T00:51:32.086Z,65.91
2023-03-26T00:53:59.091Z,66.09
2023-03-26T00:56:26.762Z,65.37
2023-03-26T00:58:53.850Z,63.13
2023-03-26T01:01:36.676Z,63.26
2023-03-26T01:04:27.552Z,64.25
2023-03-26T01:06:59.045Z,64.14
2023-03-26T01:09:33.815Z,63.82
2023-03-26T01:12:03.899Z,63.55
2023-03-26T01:14:31.104Z,63.67
2023-03-26T01:17:04.027Z,63.45
2023-03-26T01:19:45.955Z,62.83
2023-03-26T01:22:22.303Z,63.63
2023-03-26T01:24:54.055Z,64.09
2023-03-26T01:27:57.166Z,63.80
2023-03-26T01:30:33.793Z,63.62
2023-03-26T01:33:07.628Z,63.29
2023-03-26T01:35:44.137Z,64.23
2023-03-26T01:38:26.134Z,64.89
2023-03-26T01:41:18.007Z,64.99
2023-03-26T01:43:59.156Z,65.06
2023-03-26T01:46:29.045Z,64.55
2023-03-26T01:48:56.458Z,64.13
2023-03-26T01:51:32.369Z,63.61
2023-03-26T01:54:01.303Z,63.33
2023-03-26T01:56:49.830Z,62.77
2023-03-26T01:59:32.133Z,62.39
2023-03-26T02:02:26.925Z,62.87
2023-03-26T02:05:17.660Z,63.31
2023-03-26T02:08:09.837Z,64.39
2023-03-26T02:10:46.844Z,64.73
2023-03-26T02:13:14.948Z,66.71
2023-03-26T02:15:55.882Z,67.66
2023-03-26T02:18:24.425Z,68.34
2023-03-26T02:20:53.413Z,68.62
2023-03-26T02:23:21.679Z,68.71
2023-03-26T02:25:49.111Z,68.95
2023-03-26T02:28:17.184Z,69.05
2023-03-26T02:30:46.044Z,69.53
2023-03-26T02:33:15.555Z,69.62
2023-03-26T02:35:46.124Z,70.15
2023-03-26T02:38:14.742Z,71.42
2023-03-26T02:40:42.972Z,73.15
2023-03-26T02:43:10.082Z,72.63
2023-03-26T02:45:37.494Z,71.96
2023-03-26T02:48:08.168Z,71.76
2023-03-26T02:50:54.671Z,72.04
2023-03-26T02:53:41.443Z,72.77
2023-03-26T02:56:40.805Z,73.10
2023-03-26T02:59:28.141Z,72.83
2023-03-26T03:02:18.537Z,72.42
2023-03-26T03:04:46.538Z,73.62
2023-03-26T03:07:15.189Z,73.31
2023-03-26T03:09:42.674Z,72.95
2023-03-26T03:12:28.800Z,73.25
2023-03-26T03:14:56.042Z,72.69
2023-03-26T03:17:23.096Z,72.77
2023-03-26T03:19:50.046Z,72.18
2023-03-26T03:22:18.028Z,72.45
2023-03-26T03:24:47.430Z,72.48
2023-03-26T03:27:14.454Z,72.06
2023-03-26T03:29:47.207Z,70.90
2023-03-26T03:32:34.539Z,70.31
2023-03-26T03:35:04.693Z,70.24
2023-03-26T03:37:31.939Z,69.86
2023-03-26T03:39:59.623Z,69.21
2023-03-26T03:42:29.636Z,69.08
2023-03-26T03:45:00.482Z,68.75
2023-03-26T03:48:06.491Z,68.16
2023-03-26T03:50:40.843Z,68.24
2023-03-26T03:53:29.621Z,67.96
2023-03-26T03:56:02.207Z,67.39
2023-03-26T03:58:58.626Z,67.38
2023-03-26T04:01:32.490Z,66.83
2023-03-26T04:04:05.575Z,66.84
2023-03-26T04:06:53.306Z,67.18
2023-03-26T04:09:21.256Z,66.89
2023-03-26T04:11:51.191Z,67.55
2023-03-26T04:14:47.183Z,67.42
2023-03-26T04:17:16.498Z,67.90
2023-03-26T04:19:45.647Z,67.31
2023-03-26T04:22:14.692Z,67.49
2023-03-26T04:25:02.568Z,68.16
2023-03-26T04:27:36.972Z,67.89
2023-03-26T04:30:27.527Z,68.00
2023-03-26T04:33:06.646Z,68.22
2023-03-26T04:35:38.111Z,68.98
2023-03-26T04:38:10.988Z,69.19
2023-03-26T04:40:42.544Z,69.31
2023-03-26T04:43:35.726Z,69.02
2023-03-26T04:46:23.640Z,69.52
2023-03-26T04:49:01.444Z,69.40
2023-03-26T04:51:38.275Z,69.32
2023-03-26T04:54:20.713Z,69.77
2023-03-26T04:56:53.936Z,69.93
2023-03-26T04:59:44.036Z,70.52
2023-03-26T05:02:14.397Z,70.48
2023-03-26T05:04:50.139Z,70.26
2023-03-26T05:07:22.542Z,69.13
2023-03-26T05:09:53.135Z,69.21
2023-03-26T05:12:31.794Z,68.74
2023-03-26T05:15:26.415Z,68.92
2023-03-26T05:18:28.740Z,69.15
2023-03-26T05:20:57.713Z,69.97
2023-03-26T05:23:25.875Z,71.00
2023-03-26T05:26:04.605Z,71.32
2023-03-26T05:28:31.773Z,71.05
2023-03-26T05:31:21.409Z,67.54
2023-03-26T05:33:51.145Z,68.29
2023-03-26T05:36:19.321Z,69.27
2023-03-26T05:38:52.531Z,67.94
2023-03-26T05:41:39.808Z,68.34
2023-03-26T05:44:06.993Z,67.38
2023-03-26T05:46:34.320Z,67.57
2023-03-26T05:49:01.582Z,68.70
2023-03-26T05:51:33.333Z,68.77
2023-03-26T05:54:29.738Z,67.67
2023-03-26T05:57:15.374Z,66.94
2023-03-26T06:00:01.445Z,67.40
2023-03-26T06:02:59.068Z,66.29
2023-03-26T06:05:49.102Z,66.83
2023-03-26T06:08:20.792Z,68.07
2023-03-26T06:10:58.374Z,66.33
2023-03-26T06:13:25.394Z,65.70
2023-03-26T06:15:53.436Z,65.83
2023-03-26T06:18:28.831Z,66.24
2023-03-26T06:21:14.634Z,66.01
2023-03-26T06:23:49.121Z,65.64
2023-03-26T06:26:33.479Z,68.27
2023-03-26T06:29:18.318Z,68.06
2023-03-26T06:31:45.511Z,66.77
2023-03-26T06:34:26.030Z,64.77
2023-03-26T06:36:53.591Z,65.89
2023-03-26T06:39:21.768Z,67.40
2023-03-26T06:42:14.921Z,65.18
2023-03-26T06:45:14.255Z,64.83
2023-03-26T06:48:00.244Z,64.57
2023-03-26T06:50:56.731Z,64.00
2023-03-26T06:53:42.364Z,68.25
2023-03-26T06:56:17.812Z,69.44
2023-03-26T06:58:58.334Z,65.45
2023-03-26T07:01:31.563Z,66.45
2023-03-26T07:04:17.183Z,65.70
2023-03-26T07:07:02.916Z,62.03
2023-03-26T07:09:48.761Z,64.29
2023-03-26T07:12:34.664Z,61.76
2023-03-26T07:15:34.320Z,62.71
2023-03-26T07:18:39.823Z,61.69
2023-03-26T07:21:10.419Z,65.01
2023-03-26T07:23:37.847Z,65.49
2023-03-26T07:26:42.302Z,66.02
2023-03-26T07:29:34.400Z,65.66
2023-03-26T07:32:33.971Z,64.76
2023-03-26T07:35:22.333Z,63.93
2023-03-26T07:38:27.657Z,64.56
2023-03-26T07:41:39.206Z,63.36
2023-03-26T07:44:50.170Z,64.67
2023-03-26T07:47:26.064Z,64.35
2023-03-26T07:50:26.612Z,67.31
2023-03-26T07:53:24.067Z,60.82
2023-03-26T07:56:15.722Z,59.84
2023-03-26T07:59:15.122Z,63.63
2023-03-26T08:02:00.514Z,64.91
2023-03-26T08:05:01.054Z,61.74
2023-03-26T08:08:07.918Z,62.40
2023-03-26T08:10:56.160Z,60.75
2023-03-26T08:13:34.981Z,59.80
2023-03-26T08:16:25.617Z,59.36
2023-03-26T08:19:08.755Z,60.95
2023-03-26T08:21:45.275Z,61.74
2023-03-26T08:24:18.358Z,58.05
2023-03-26T08:27:21.526Z,53.99
2023-03-26T08:30:09.636Z,55.34
2023-03-26T08:32:37.168Z,56.97
2023-03-26T08:35:04.788Z,56.70
2023-03-26T08:37:32.040Z,50.80
2023-03-26T08:39:59.150Z,53.51
2023-03-26T08:42:47.954Z,55.35
2023-03-26T08:45:27.225Z,52.89
2023-03-26T08:48:31.069Z,53.62
2023-03-26T08:51:20.842Z,51.06
2023-03-26T08:54:06.388Z,49.75
2023-03-26T08:56:49.864Z,48.46
2023-03-26T08:59:58.324Z,47.80
2023-03-26T09:02:31.514Z,42.53
2023-03-26T09:05:21.620Z,42.45
2023-03-26T09:08:22.293Z,44.77
2023-03-26T09:10:56.403Z,41.67
2023-03-26T09:13:56.709Z,42.25
2023-03-26T09:16:53.536Z,41.47
2023-03-26T09:19:53.145Z,42.22
2023-03-26T09:22:32.334Z,39.82
2023-03-26T09:25:15.683Z,38.40
2023-03-26T09:28:23.971Z,37.26
2023-03-26T09:31:15.078Z,40.61
2023-03-26T09:34:20.427Z,39.04
2023-03-26T09:36:57.536Z,37.77
2023-03-26T09:39:47.017Z,37.39
2023-03-26T09:42:20.887Z,39.80
2023-03-26T09:44:50.783Z,40.73
2023-03-26T09:47:55.506Z,40.62
2023-03-26T09:50:44.505Z,39.19
2023-03-26T09:53:32.910Z,40.38
2023-03-26T09:56:11.833Z,39.63
2023-03-26T09:59:09.968Z,38.18
2023-03-26T10:01:58.909Z,35.33
2023-03-26T10:04:40.534Z,34.95
2023-03-26T10:07:45.142Z,38.61
2023-03-26T10:10:29.980Z,30.99
2023-03-26T10:13:14.446Z,35.84
2023-03-26T10:16:15.672Z,33.60
2023-03-26T10:19:04.643Z,36.12
2023-03-26T10:22:11.918Z,30.25
2023-03-26T10:25:06.637Z,35.62
2023-03-26T10:27:40.798Z,34.35
2023-03-26T10:30:30.674Z,31.10
2023-03-26T10:33:27.300Z,32.00
2023-03-26T10:36:34.576Z,34.50
2023-03-26T10:39:36.851Z,32.67
2023-03-26T10:42:14.836Z,31.43
2023-03-26T10:45:20.053Z,30.84
2023-03-26T10:48:08.411Z,30.34
2023-03-26T10:50:42.045Z,27.22
2023-03-26T10:53:15.026Z,27.89
2023-03-26T10:55:46.998Z,29.08
2023-03-26T10:58:29.655Z,30.27
2023-03-26T11:01:28.953Z,32.11
2023-03-26T11:04:06.813Z,30.63
2023-03-26T11:07:16.677Z,31.93
2023-03-26T11:09:54.237Z,31.55
2023-03-26T11:12:53.626Z,33.06
2023-03-26T11:15:33.404Z,32.93
2023-03-26T11:18:16.116Z,33.05
2023-03-26T11:21:18.891Z,30.16
2023-03-26T11:24:05.273Z,33.78
2023-03-26T11:27:15.426Z,33.26
2023-03-26T11:29:52.201Z,33.03
2023-03-26T11:32:34.873Z,30.45
2023-03-26T11:35:40.368Z,33.06
2023-03-26T11:38:26.663Z,33.46
2023-03-26T11:40:56.540Z,27.03
2023-03-26T11:43:51.790Z,30.38
2023-03-26T11:46:23.081Z,30.56
2023-03-26T11:48:57.660Z,33.18
2023-03-26T11:51:34.124Z,33.08
2023-03-26T11:54:06.398Z,32.54
2023-03-26T11:57:04.764Z,31.32
2023-03-26T11:59:49.094Z,32.77
2023-03-26T12:02:29.766Z,33.00
2023-03-26T12:05:20.739Z,31.64
2023-03-26T12:07:55.962Z,30.86
2023-03-26T12:10:31.559Z,29.63
2023-03-26T12:13:01.944Z,27.15
2023-03-26T12:15:32.108Z,30.20
2023-03-26T12:18:00.389Z,30.70
2023-03-26T12:20:34.822Z,27.78
2023-03-26T12:23:04.340Z,31.57
2023-03-26T12:25:39.112Z,32.54
2023-03-26T12:28:06.255Z,32.29
2023-03-26T12:30:38.084Z,31.66
2023-03-26T12:33:07.792Z,31.56
2023-03-26T12:35:36.097Z,30.08
2023-03-26T12:38:24.588Z,30.59
2023-03-26T12:44:43.346Z,32.57
2023-03-26T12:44:50.661Z,31.39
2023-03-26T12:47:59.035Z,29.86
2023-03-26T12:50:02.198Z,30.05
2023-03-26T12:52:42.786Z,31.98
2023-03-26T12:55:24.960Z,30.11
2023-03-26T12:58:13.289Z,30.62
2023-03-26T13:01:25.870Z,28.16
2023-03-26T13:04:04.204Z,29.33
2023-03-26T13:07:00.214Z,31.91
2023-03-26T13:09:55.408Z,30.57
2023-03-26T13:12:41.121Z,30.29
2023-03-26T13:15:23.791Z,30.53
2023-03-26T13:18:15.429Z,30.25
2023-03-26T13:20:57.704Z,29.33
2023-03-26T13:23:49.107Z,29.67
2023-03-26T13:26:44.862Z,29.47
2023-03-26T13:29:20.724Z,29.13
2023-03-26T13:32:24.750Z,29.16
2023-03-26T13:35:14.167Z,27.95
2023-03-26T13:37:53.197Z,27.80
2023-03-26T13:40:26.488Z,27.62
2023-03-26T13:42:56.894Z,28.38
2023-03-26T13:45:47.633Z,27.79
2023-03-26T13:48:23.109Z,26.80
2023-03-26T13:51:13.431Z,27.72
2023-03-26T13:53:51.068Z,27.75
2023-03-26T13:56:23.687Z,27.57
2023-03-26T13:58:56.502Z,27.32
2023-03-26T14:01:35.104Z,27.45
2023-03-26T14:04:32.193Z,27.91
2023-03-26T14:07:33.372Z,26.66
2023-03-26T14:10:19.681Z,26.65
2023-03-26T14:12:55.944Z,26.72
2023-03-26T14:15:34.848Z,27.13
2023-03-26T14:18:20.646Z,27.76
2023-03-26T14:20:57.003Z,28.93
2023-03-26T14:24:07.558Z,30.16
2023-03-26T14:27:19.917Z,29.24
2023-03-26T14:30:04.999Z,28.32
2023-03-26T14:32:49.589Z,28.02
2023-03-26T14:35:39.296Z,28.25
2023-03-26T14:38:43.484Z,27.99
2023-03-26T14:41:18.237Z,28.79
2023-03-26T14:44:15.852Z,28.27
2023-03-26T14:47:21.882Z,28.90
2023-03-26T14:50:12.478Z,29.82
2023-03-26T14:53:01.162Z,29.49
2023-03-26T14:55:51.104Z,29.72
2023-03-26T14:58:49.075Z,30.42
2023-03-26T15:01:23.133Z,30.67
2023-03-26T15:04:11.777Z,30.75
2023-03-26T15:06:57.111Z,30.91
2023-03-26T15:09:56.509Z,29.95
2023-03-26T15:13:14.270Z,29.83
2023-03-26T15:16:18.502Z,30.16
2023-03-26T15:18:51.671Z,30.59
2023-03-26T15:21:27.421Z,31.99
2023-03-26T15:24:34.277Z,31.84
2023-03-26T15:27:22.907Z,32.62
2023-03-26T15:30:15.240Z,31.94
2023-03-26T15:32:57.349Z,31.98
2023-03-26T15:35:42.237Z,31.52
2023-03-26T15:38:27.387Z,32.32
2023-03-26T15:41:17.674Z,31.01
2023-03-26T15:44:24.453Z,31.42
2023-03-26T15:47:23.022Z,31.64
2023-03-26T15:50:02.097Z,33.29
2023-03-26T15:52:42.398Z,34.20
2023-03-26T15:55:36.374Z,33.90
2023-03-26T15:58:17.796Z,35.59
2023-03-26T16:01:02.848Z,38.39
2023-03-26T16:03:48.441Z,38.48
2023-03-26T16:06:37.202Z,38.98
2023-03-26T16:09:14.945Z,42.01
2023-03-26T16:11:58.699Z,40.69
2023-03-26T16:14:34.839Z,40.26
2023-03-26T16:17:06.652Z,39.14
2023-03-26T16:19:50.461Z,39.68
2023-03-26T16:22:59.946Z,36.62
2023-03-26T16:25:30.413Z,35.44
2023-03-26T16:28:12.598Z,35.92
2023-03-26T16:30:42.198Z,34.79
2023-03-26T16:33:15.710Z,36.12
2023-03-26T16:36:02.874Z,34.87
2023-03-26T16:38:50.425Z,35.28
2023-03-26T16:41:27.405Z,34.17
2023-03-26T16:44:29.440Z,34.96
2023-03-26T16:47:24.549Z,36.01
2023-03-26T16:50:08.198Z,31.63
2023-03-26T16:53:15.825Z,33.62
2023-03-26T16:56:07.786Z,34.72
2023-03-26T16:58:44.484Z,36.81
2023-03-26T17:01:36.245Z,38.26
2023-03-26T17:04:17.313Z,37.89
2023-03-26T17:07:09.081Z,34.90
2023-03-26T17:09:42.846Z,34.97
2023-03-26T17:12:28.176Z,35.72
2023-03-26T17:15:01.583Z,36.87
2023-03-26T17:17:46.866Z,39.57
2023-03-26T17:20:32.954Z,37.52
2023-03-26T17:23:18.758Z,38.41
2023-03-26T17:25:55.897Z,39.80
2023-03-26T17:28:54.666Z,41.05
2023-03-26T17:31:40.297Z,40.75
2023-03-26T17:34:38.330Z,40.66
2023-03-26T17:37:10.597Z,40.34
2023-03-26T17:39:40.477Z,40.47
2023-03-26T17:42:16.405Z,40.36
2023-03-26T17:44:47.790Z,40.12
2023-03-26T17:47:24.266Z,40.95
2023-03-26T17:49:58.468Z,40.84
2023-03-26T17:52:41.827Z,40.16
2023-03-26T17:55:15.229Z,40.76
2023-03-26T17:57:46.499Z,41.38
2023-03-26T18:00:21.112Z,42.25
2023-03-26T18:03:02.845Z,41.45
2023-03-26T18:05:31.199Z,42.06
2023-03-26T18:08:19.166Z,42.13
2023-03-26T18:11:08.336Z,41.04
2023-03-26T18:13:53.754Z,40.96
2023-03-26T18:16:27.047Z,41.46
2023-03-26T18:19:01.731Z,41.87
2023-03-26T18:21:39.811Z,42.63
2023-03-26T18:24:14.030Z,43.03
2023-03-26T18:26:53.926Z,43.40
2023-03-26T18:29:28.156Z,43.12
2023-03-26T18:32:17.564Z,43.25
2023-03-26T18:34:58.687Z,43.58
2023-03-26T18:37:38.791Z,43.70
2023-03-26T18:40:11.788Z,43.83
2023-03-26T18:42:41.639Z,43.08
2023-03-26T18:45:29.112Z,43.79
2023-03-26T18:48:02.678Z,44.22
2023-03-26T18:50:37.301Z,44.43
2023-03-26T18:53:15.515Z,44.04
2023-03-26T18:55:44.213Z,44.02
2023-03-26T18:58:22.472Z,44.05
2023-03-26T19:00:52.963Z,43.75
2023-03-26T19:03:24.480Z,43.51
2023-03-26T19:05:54.169Z,43.23
2023-03-26T19:08:24.067Z,43.56
2023-03-26T19:10:52.793Z,43.65
2023-03-26T19:13:23.166Z,43.21
2023-03-26T19:15:52.381Z,43.37
2023-03-26T19:18:23.008Z,43.20
2023-03-26T19:20:56.026Z,43.88
2023-03-26T19:23:27.794Z,44.57
2023-03-26T19:25:56.472Z,44.72
2023-03-26T19:28:31.597Z,44.22
2023-03-26T19:31:08.250Z,43.63
2023-03-26T19:33:39.786Z,44.09
2023-03-26T19:36:13.098Z,44.56
2023-03-26T19:38:49.524Z,45.35
2023-03-26T19:41:23.589Z,45.55
2023-03-26T19:44:01.673Z,45.19
2023-03-26T19:46:33.768Z,45.05
2023-03-26T19:49:30.355Z,46.21
2023-03-26T19:52:24.875Z,46.53
2023-03-26T19:55:22.707Z,47.49
2023-03-26T19:57:50.087Z,48.14
2023-03-26T20:00:17.334Z,48.14
2023-03-26T20:02:48.942Z,48.56
2023-03-26T20:05:25.805Z,49.56
2023-03-26T20:07:57.467Z,50.54
2023-03-26T20:10:24.906Z,50.77
2023-03-26T20:12:52.005Z,51.18
2023-03-26T20:15:26.012Z,51.37
2023-03-26T20:17:53.775Z,52.35
2023-03-26T20:20:24.762Z,52.62
2023-03-26T20:22:54.120Z,52.75
2023-03-26T20:25:33.133Z,52.60
2023-03-26T20:28:00.300Z,52.41
2023-03-26T20:30:37.525Z,52.40
2023-03-26T20:33:12.027Z,52.82
2023-03-26T20:35:41.156Z,53.40
2023-03-26T20:38:09.923Z,53.72
2023-03-26T20:40:38.606Z,55.18
2023-03-26T20:43:11.910Z,54.72
2023-03-26T20:45:39.169Z,55.06
2023-03-26T20:48:08.434Z,54.76
2023-03-26T20:50:35.954Z,54.60
2023-03-26T20:53:06.635Z,54.87
2023-03-26T20:55:33.663Z,54.48
2023-03-26T20:58:01.270Z,53.96
2023-03-26T21:00:28.690Z,53.65
2023-03-26T21:02:57.177Z,53.44
2023-03-26T21:05:27.049Z,52.81
2023-03-26T21:08:04.113Z,53.30
2023-03-26T21:10:31.650Z,53.24
2023-03-26T21:13:23.548Z,52.54
2023-03-26T21:15:50.816Z,52.56
2023-03-26T21:18:18.232Z,52.27
2023-03-26T21:20:54.583Z,52.15
2023-03-26T21:23:40.843Z,50.75
2023-03-26T21:26:48.816Z,50.45
2023-03-26T21:29:16.107Z,50.44
2023-03-26T21:31:43.445Z,50.03
2023-03-26T21:34:13.423Z,50.10
2023-03-26T21:36:40.744Z,50.56
2023-03-26T21:39:13.998Z,51.14
2023-03-26T21:42:05.509Z,50.91
2023-03-26T21:44:34.179Z,50.70
2023-03-26T21:47:01.581Z,50.93
2023-03-26T21:49:29.058Z,50.64
2023-03-26T21:51:56.403Z,50.59
2023-03-26T21:54:28.119Z,50.07
2023-03-26T21:57:43.395Z,50.17
2023-03-26T22:00:15.401Z,49.89
2023-03-26T22:03:01.444Z,50.70
2023-03-26T22:05:35.962Z,51.22
2023-03-26T22:08:06.352Z,51.74
2023-03-26T22:10:33.301Z,52.17
2023-03-26T22:13:00.310Z,52.16
2023-03-26T22:15:30.821Z,51.39
2023-03-26T22:18:02.777Z,51.89
2023-03-26T22:20:29.755Z,52.56
2023-03-26T22:22:56.854Z,53.41
2023-03-26T22:25:24.159Z,53.06
2023-03-26T22:27:52.190Z,53.40
2023-03-26T22:30:21.056Z,53.43
2023-03-26T22:32:48.801Z,53.21
2023-03-26T22:35:16.742Z,53.08
2023-03-26T22:37:43.824Z,52.87
2023-03-26T22:40:13.618Z,53.11
2023-03-26T22:42:41.423Z,52.58
2023-03-26T22:45:12.596Z,52.82
2023-03-26T22:47:40.271Z,52.33
2023-03-26T22:50:13.789Z,52.41
2023-03-26T22:52:41.115Z,52.06
2023-03-26T22:55:09.077Z,51.97
2023-03-26T22:57:36.105Z,52.08
2023-03-26T23:00:14.931Z,52.62
2023-03-26T23:02:45.031Z,53.13
2023-03-26T23:05:14.173Z,52.79
2023-03-26T23:07:42.608Z,53.07
2023-03-26T23:10:11.290Z,53.36
2023-03-26T23:12:39.303Z,52.88
2023-03-26T23:15:06.863Z,53.08
2023-03-26T23:17:35.630Z,53.21
2023-03-26T23:20:06.279Z,53.33
2023-03-26T23:22:35.450Z,53.33
2023-03-26T23:25:02.440Z,52.71
2023-03-26T23:27:29.596Z,52.90
2023-03-26T23:29:56.703Z,52.96
2023-03-26T23:32:25.313Z,52.83
2023-03-26T23:34:52.768Z,52.82
2023-03-26T23:37:23.473Z,51.65
2023-03-26T23:39:53.136Z,52.01
2023-03-26T23:42:28.494Z,52.06
2023-03-26T23:44:57.635Z,52.41
2023-03-26T23:47:24.738Z,52.13
2023-03-26T23:49:51.814Z,52.01
2023-03-26T23:52:18.909Z,52.10
2023-03-26T23:54:45.904Z,52.60
2023-03-26T23:57:13.107Z,52.74
2023-03-26T23:59:41.943Z,53.24
